sensor_id;sensor_type;location;lat;lon;timestamp;P1;durP1;ratioP1;P2;durP2;ratioP2
44222;SDS011;29895;48.804;9.386;2024-02-21T00:00:13;22.75;;;6.70;;
44222;SDS011;29895;48.804;9.386;2024-02-21T00:02:40;19.20;;;6.63;;
44222;SDS011;29895;48.804;9.386;2024-02-21T00:05:05;22.25;;;6.00;;
44222;SDS011;29895;48.804;9.386;2024-02-21T00:07:31;19.80;;;6.10;;
44222;SDS011;29895;48.804;9.386;2024-02-21T00:09:57;24.85;;;7.63;;
44222;SDS011;29895;48.804;9.386;2024-02-21T00:12:22;17.95;;;6.35;;
44222;SDS011;29895;48.804;9.386;2024-02-21T00:14:48;15.07;;;6.47;;
44222;SDS011;29895;48.804;9.386;2024-02-21T00:17:13;14.05;;;6.43;;
44222;SDS011;29895;48.804;9.386;2024-02-21T00:19:39;20.42;;;5.85;;
44222;SDS011;29895;48.804;9.386;2024-02-21T00:22:05;18.02;;;6.20;;
44222;SDS011;29895;48.804;9.386;2024-02-21T00:24:30;18.65;;;6.05;;
44222;SDS011;29895;48.804;9.386;2024-02-21T00:26:56;21.23;;;5.57;;
44222;SDS011;29895;48.804;9.386;2024-02-21T00:29:22;15.82;;;5.82;;
44222;SDS011;29895;48.804;9.386;2024-02-21T00:31:48;22.48;;;5.82;;
44222;SDS011;29895;48.804;9.386;2024-02-21T00:34:14;14.20;;;5.15;;
44222;SDS011;29895;48.804;9.386;2024-02-21T00:36:40;13.00;;;5.32;;
44222;SDS011;29895;48.804;9.386;2024-02-21T00:39:05;18.13;;;6.22;;
44222;SDS011;29895;48.804;9.386;2024-02-21T00:41:31;17.50;;;6.30;;
44222;SDS011;29895;48.804;9.386;2024-02-21T00:43:58;20.17;;;6.38;;
44222;SDS011;29895;48.804;9.386;2024-02-21T00:46:23;22.75;;;6.30;;
44222;SDS011;29895;48.804;9.386;2024-02-21T00:48:49;19.38;;;6.80;;
44222;SDS011;29895;48.804;9.386;2024-02-21T00:51:15;29.33;;;11.35;;
44222;SDS011;29895;48.804;9.386;2024-02-21T00:53:42;34.25;;;9.77;;
44222;SDS011;29895;48.804;9.386;2024-02-21T00:56:07;22.00;;;7.07;;
44222;SDS011;29895;48.804;9.386;2024-02-21T00:58:33;25.38;;;7.22;;
44222;SDS011;29895;48.804;9.386;2024-02-21T01:01:00;18.70;;;7.32;;
44222;SDS011;29895;48.804;9.386;2024-02-21T01:03:26;20.25;;;6.75;;
44222;SDS011;29895;48.804;9.386;2024-02-21T01:05:54;23.70;;;7.63;;
44222;SDS011;29895;48.804;9.386;2024-02-21T01:08:19;16.42;;;5.97;;
44222;SDS011;29895;48.804;9.386;2024-02-21T01:10:45;15.45;;;5.70;;
44222;SDS011;29895;48.804;9.386;2024-02-21T01:13:11;20.10;;;6.45;;
44222;SDS011;29895;48.804;9.386;2024-02-21T01:15:36;20.55;;;6.85;;
44222;SDS011;29895;48.804;9.386;2024-02-21T01:18:02;19.40;;;6.13;;
44222;SDS011;29895;48.804;9.386;2024-02-21T01:20:28;22.13;;;7.30;;
44222;SDS011;29895;48.804;9.386;2024-02-21T01:22:53;18.65;;;7.05;;
44222;SDS011;29895;48.804;9.386;2024-02-21T01:25:19;21.55;;;7.35;;
44222;SDS011;29895;48.804;9.386;2024-02-21T01:27:44;20.33;;;7.63;;
44222;SDS011;29895;48.804;9.386;2024-02-21T01:30:10;19.88;;;6.70;;
44222;SDS011;29895;48.804;9.386;2024-02-21T01:32:36;20.02;;;5.82;;
44222;SDS011;29895;48.804;9.386;2024-02-21T01:35:02;19.58;;;6.90;;
44222;SDS011;29895;48.804;9.386;2024-02-21T01:37:28;19.58;;;7.13;;
44222;SDS011;29895;48.804;9.386;2024-02-21T01:39:54;17.80;;;6.68;;
44222;SDS011;29895;48.804;9.386;2024-02-21T01:42:19;13.82;;;6.30;;
44222;SDS011;29895;48.804;9.386;2024-02-21T01:44:45;16.63;;;6.50;;
44222;SDS011;29895;48.804;9.386;2024-02-21T01:47:11;16.42;;;6.20;;
44222;SDS011;29895;48.804;9.386;2024-02-21T01:49:40;19.42;;;5.65;;
44222;SDS011;29895;48.804;9.386;2024-02-21T01:52:06;22.38;;;6.07;;
44222;SDS011;29895;48.804;9.386;2024-02-21T01:54:33;18.80;;;5.93;;
44222;SDS011;29895;48.804;9.386;2024-02-21T01:56:58;17.15;;;5.35;;
44222;SDS011;29895;48.804;9.386;2024-02-21T01:59:24;19.50;;;5.28;;
44222;SDS011;29895;48.804;9.386;2024-02-21T02:01:50;17.73;;;5.20;;
44222;SDS011;29895;48.804;9.386;2024-02-21T02:04:17;17.10;;;5.30;;
44222;SDS011;29895;48.804;9.386;2024-02-21T02:06:45;15.63;;;5.50;;
44222;SDS011;29895;48.804;9.386;2024-02-21T02:09:11;19.20;;;5.18;;
44222;SDS011;29895;48.804;9.386;2024-02-21T02:11:36;14.90;;;4.80;;
44222;SDS011;29895;48.804;9.386;2024-02-21T02:14:02;19.02;;;5.15;;
44222;SDS011;29895;48.804;9.386;2024-02-21T02:16:28;13.23;;;4.47;;
44222;SDS011;29895;48.804;9.386;2024-02-21T02:18:53;18.63;;;5.43;;
44222;SDS011;29895;48.804;9.386;2024-02-21T02:21:36;17.85;;;5.28;;
44222;SDS011;29895;48.804;9.386;2024-02-21T02:24:06;14.65;;;5.32;;
44222;SDS011;29895;48.804;9.386;2024-02-21T02:26:32;10.80;;;4.68;;
44222;SDS011;29895;48.804;9.386;2024-02-21T02:28:57;13.93;;;5.10;;
44222;SDS011;29895;48.804;9.386;2024-02-21T02:31:23;18.85;;;5.43;;
44222;SDS011;29895;48.804;9.386;2024-02-21T02:33:49;15.68;;;5.00;;
44222;SDS011;29895;48.804;9.386;2024-02-21T02:36:15;19.60;;;5.43;;
44222;SDS011;29895;48.804;9.386;2024-02-21T02:38:40;17.80;;;5.07;;
44222;SDS011;29895;48.804;9.386;2024-02-21T02:41:06;15.32;;;4.57;;
44222;SDS011;29895;48.804;9.386;2024-02-21T02:43:32;12.20;;;4.43;;
44222;SDS011;29895;48.804;9.386;2024-02-21T02:45:57;17.42;;;5.35;;
44222;SDS011;29895;48.804;9.386;2024-02-21T02:48:23;13.75;;;4.53;;
44222;SDS011;29895;48.804;9.386;2024-02-21T02:50:49;14.70;;;4.55;;
44222;SDS011;29895;48.804;9.386;2024-02-21T02:53:14;13.23;;;4.57;;
44222;SDS011;29895;48.804;9.386;2024-02-21T02:55:40;10.95;;;4.25;;
44222;SDS011;29895;48.804;9.386;2024-02-21T02:58:06;16.58;;;4.43;;
44222;SDS011;29895;48.804;9.386;2024-02-21T03:00:31;15.20;;;4.18;;
44222;SDS011;29895;48.804;9.386;2024-02-21T03:03:01;14.13;;;3.80;;
44222;SDS011;29895;48.804;9.386;2024-02-21T03:05:28;12.85;;;3.63;;
44222;SDS011;29895;48.804;9.386;2024-02-21T03:07:54;12.63;;;3.72;;
44222;SDS011;29895;48.804;9.386;2024-02-21T03:10:20;21.52;;;5.25;;
44222;SDS011;29895;48.804;9.386;2024-02-21T03:12:46;17.48;;;3.90;;
44222;SDS011;29895;48.804;9.386;2024-02-21T03:15:13;12.00;;;3.97;;
44222;SDS011;29895;48.804;9.386;2024-02-21T03:17:39;18.10;;;4.18;;
44222;SDS011;29895;48.804;9.386;2024-02-21T03:20:05;14.82;;;4.05;;
44222;SDS011;29895;48.804;9.386;2024-02-21T03:22:35;16.73;;;4.32;;
44222;SDS011;29895;48.804;9.386;2024-02-21T03:25:01;12.82;;;3.70;;
44222;SDS011;29895;48.804;9.386;2024-02-21T03:27:26;18.20;;;4.45;;
44222;SDS011;29895;48.804;9.386;2024-02-21T03:29:52;10.77;;;3.88;;
44222;SDS011;29895;48.804;9.386;2024-02-21T03:32:18;16.90;;;4.82;;
44222;SDS011;29895;48.804;9.386;2024-02-21T03:34:43;20.30;;;5.50;;
44222;SDS011;29895;48.804;9.386;2024-02-21T03:37:09;14.77;;;4.25;;
44222;SDS011;29895;48.804;9.386;2024-02-21T03:39:35;13.60;;;4.30;;
44222;SDS011;29895;48.804;9.386;2024-02-21T03:42:01;12.20;;;4.60;;
44222;SDS011;29895;48.804;9.386;2024-02-21T03:44:30;18.42;;;4.53;;
44222;SDS011;29895;48.804;9.386;2024-02-21T03:46:56;15.77;;;3.97;;
44222;SDS011;29895;48.804;9.386;2024-02-21T03:49:22;15.25;;;4.32;;
44222;SDS011;29895;48.804;9.386;2024-02-21T03:51:48;16.25;;;4.70;;
44222;SDS011;29895;48.804;9.386;2024-02-21T03:54:13;19.27;;;4.25;;
44222;SDS011;29895;48.804;9.386;2024-02-21T03:56:39;14.60;;;4.20;;
44222;SDS011;29895;48.804;9.386;2024-02-21T03:59:08;9.88;;;3.40;;
44222;SDS011;29895;48.804;9.386;2024-02-21T04:01:34;18.80;;;3.75;;
44222;SDS011;29895;48.804;9.386;2024-02-21T04:04:00;11.23;;;4.43;;
44222;SDS011;29895;48.804;9.386;2024-02-21T04:06:26;13.23;;;3.47;;
44222;SDS011;29895;48.804;9.386;2024-02-21T04:08:51;13.18;;;3.85;;
44222;SDS011;29895;48.804;9.386;2024-02-21T04:11:17;13.45;;;3.65;;
44222;SDS011;29895;48.804;9.386;2024-02-21T04:13:44;13.90;;;4.25;;
44222;SDS011;29895;48.804;9.386;2024-02-21T04:16:14;16.70;;;3.72;;
44222;SDS011;29895;48.804;9.386;2024-02-21T04:18:40;17.98;;;4.63;;
44222;SDS011;29895;48.804;9.386;2024-02-21T04:21:06;16.73;;;4.00;;
44222;SDS011;29895;48.804;9.386;2024-02-21T04:23:32;18.98;;;5.32;;
44222;SDS011;29895;48.804;9.386;2024-02-21T04:25:58;11.70;;;4.43;;
44222;SDS011;29895;48.804;9.386;2024-02-21T04:28:23;19.73;;;5.20;;
44222;SDS011;29895;48.804;9.386;2024-02-21T04:30:49;16.35;;;4.85;;
44222;SDS011;29895;48.804;9.386;2024-02-21T04:33:15;14.65;;;4.20;;
44222;SDS011;29895;48.804;9.386;2024-02-21T04:35:40;11.93;;;4.03;;
44222;SDS011;29895;48.804;9.386;2024-02-21T04:38:06;17.50;;;4.20;;
44222;SDS011;29895;48.804;9.386;2024-02-21T04:40:31;16.98;;;4.22;;
44222;SDS011;29895;48.804;9.386;2024-02-21T04:42:57;14.93;;;4.20;;
44222;SDS011;29895;48.804;9.386;2024-02-21T04:45:23;12.52;;;4.10;;
44222;SDS011;29895;48.804;9.386;2024-02-21T04:47:49;15.48;;;4.63;;
44222;SDS011;29895;48.804;9.386;2024-02-21T04:50:14;10.98;;;3.80;;
44222;SDS011;29895;48.804;9.386;2024-02-21T04:52:40;16.85;;;4.10;;
44222;SDS011;29895;48.804;9.386;2024-02-21T04:55:06;15.63;;;4.47;;
44222;SDS011;29895;48.804;9.386;2024-02-21T04:57:33;12.20;;;3.90;;
44222;SDS011;29895;48.804;9.386;2024-02-21T04:59:58;19.33;;;4.78;;
44222;SDS011;29895;48.804;9.386;2024-02-21T05:02:24;13.65;;;4.60;;
44222;SDS011;29895;48.804;9.386;2024-02-21T05:04:51;15.55;;;4.68;;
44222;SDS011;29895;48.804;9.386;2024-02-21T05:07:17;14.70;;;4.95;;
44222;SDS011;29895;48.804;9.386;2024-02-21T05:09:44;14.07;;;4.60;;
44222;SDS011;29895;48.804;9.386;2024-02-21T05:12:10;14.13;;;4.15;;
44222;SDS011;29895;48.804;9.386;2024-02-21T05:14:36;17.13;;;4.70;;
44222;SDS011;29895;48.804;9.386;2024-02-21T05:17:02;14.65;;;4.13;;
44222;SDS011;29895;48.804;9.386;2024-02-21T05:19:28;13.60;;;4.15;;
44222;SDS011;29895;48.804;9.386;2024-02-21T05:21:54;15.98;;;4.40;;
44222;SDS011;29895;48.804;9.386;2024-02-21T05:24:20;12.45;;;4.30;;
44222;SDS011;29895;48.804;9.386;2024-02-21T05:26:45;15.77;;;4.18;;
44222;SDS011;29895;48.804;9.386;2024-02-21T05:29:11;14.45;;;4.32;;
44222;SDS011;29895;48.804;9.386;2024-02-21T05:34:18;11.60;;;4.10;;
44222;SDS011;29895;48.804;9.386;2024-02-21T05:36:44;16.05;;;4.30;;
44222;SDS011;29895;48.804;9.386;2024-02-21T05:39:11;12.63;;;4.45;;
44222;SDS011;29895;48.804;9.386;2024-02-21T05:41:36;14.80;;;4.60;;
44222;SDS011;29895;48.804;9.386;2024-02-21T05:44:02;19.77;;;4.45;;
44222;SDS011;29895;48.804;9.386;2024-02-21T05:46:28;16.27;;;4.40;;
44222;SDS011;29895;48.804;9.386;2024-02-21T05:48:54;18.55;;;5.05;;
44222;SDS011;29895;48.804;9.386;2024-02-21T05:51:19;20.40;;;4.22;;
44222;SDS011;29895;48.804;9.386;2024-02-21T05:53:45;15.60;;;5.00;;
44222;SDS011;29895;48.804;9.386;2024-02-21T05:56:11;16.88;;;5.03;;
44222;SDS011;29895;48.804;9.386;2024-02-21T05:58:37;15.00;;;4.35;;
44222;SDS011;29895;48.804;9.386;2024-02-21T06:01:03;15.00;;;4.82;;
44222;SDS011;29895;48.804;9.386;2024-02-21T06:03:30;20.10;;;5.45;;
44222;SDS011;29895;48.804;9.386;2024-02-21T06:05:55;17.55;;;4.70;;
44222;SDS011;29895;48.804;9.386;2024-02-21T06:08:21;23.20;;;4.97;;
44222;SDS011;29895;48.804;9.386;2024-02-21T06:10:47;20.35;;;4.95;;
44222;SDS011;29895;48.804;9.386;2024-02-21T06:13:13;12.13;;;5.07;;
44222;SDS011;29895;48.804;9.386;2024-02-21T06:15:39;15.73;;;4.72;;
44222;SDS011;29895;48.804;9.386;2024-02-21T06:18:05;19.25;;;5.40;;
44222;SDS011;29895;48.804;9.386;2024-02-21T06:20:31;18.58;;;4.40;;
44222;SDS011;29895;48.804;9.386;2024-02-21T06:22:57;17.08;;;5.05;;
44222;SDS011;29895;48.804;9.386;2024-02-21T06:25:22;16.13;;;5.38;;
44222;SDS011;29895;48.804;9.386;2024-02-21T06:27:48;22.73;;;5.95;;
44222;SDS011;29895;48.804;9.386;2024-02-21T06:30:13;14.27;;;4.38;;
44222;SDS011;29895;48.804;9.386;2024-02-21T06:32:39;15.38;;;4.80;;
44222;SDS011;29895;48.804;9.386;2024-02-21T06:35:05;14.18;;;4.35;;
44222;SDS011;29895;48.804;9.386;2024-02-21T06:37:31;16.17;;;4.40;;
44222;SDS011;29895;48.804;9.386;2024-02-21T06:39:57;17.92;;;4.40;;
44222;SDS011;29895;48.804;9.386;2024-02-21T06:42:26;16.70;;;4.10;;
44222;SDS011;29895;48.804;9.386;2024-02-21T06:44:52;15.65;;;4.50;;
44222;SDS011;29895;48.804;9.386;2024-02-21T06:47:17;12.15;;;3.72;;
44222;SDS011;29895;48.804;9.386;2024-02-21T06:49:43;13.32;;;4.70;;
44222;SDS011;29895;48.804;9.386;2024-02-21T06:52:13;17.73;;;6.28;;
44222;SDS011;29895;48.804;9.386;2024-02-21T06:54:42;19.67;;;6.80;;
44222;SDS011;29895;48.804;9.386;2024-02-21T06:57:07;20.50;;;5.32;;
44222;SDS011;29895;48.804;9.386;2024-02-21T06:59:33;16.98;;;5.40;;
44222;SDS011;29895;48.804;9.386;2024-02-21T07:01:59;20.23;;;5.65;;
44222;SDS011;29895;48.804;9.386;2024-02-21T07:04:25;22.45;;;6.82;;
44222;SDS011;29895;48.804;9.386;2024-02-21T07:06:52;19.30;;;7.28;;
44222;SDS011;29895;48.804;9.386;2024-02-21T07:09:18;15.93;;;6.38;;
44222;SDS011;29895;48.804;9.386;2024-02-21T07:11:43;18.05;;;7.68;;
44222;SDS011;29895;48.804;9.386;2024-02-21T07:14:09;13.50;;;5.38;;
44222;SDS011;29895;48.804;9.386;2024-02-21T07:16:35;17.90;;;7.00;;
44222;SDS011;29895;48.804;9.386;2024-02-21T07:19:00;19.88;;;8.20;;
44222;SDS011;29895;48.804;9.386;2024-02-21T07:21:27;16.65;;;6.45;;
44222;SDS011;29895;48.804;9.386;2024-02-21T07:23:52;16.73;;;6.05;;
44222;SDS011;29895;48.804;9.386;2024-02-21T07:26:18;11.85;;;5.68;;
44222;SDS011;29895;48.804;9.386;2024-02-21T07:28:44;15.93;;;6.90;;
44222;SDS011;29895;48.804;9.386;2024-02-21T07:31:09;16.45;;;7.32;;
44222;SDS011;29895;48.804;9.386;2024-02-21T07:33:35;23.27;;;7.22;;
44222;SDS011;29895;48.804;9.386;2024-02-21T07:36:01;21.17;;;6.20;;
44222;SDS011;29895;48.804;9.386;2024-02-21T07:38:30;20.08;;;5.68;;
44222;SDS011;29895;48.804;9.386;2024-02-21T07:40:56;20.20;;;5.65;;
44222;SDS011;29895;48.804;9.386;2024-02-21T07:43:21;17.33;;;6.15;;
44222;SDS011;29895;48.804;9.386;2024-02-21T07:45:47;16.90;;;5.80;;
44222;SDS011;29895;48.804;9.386;2024-02-21T07:48:13;15.10;;;5.45;;
44222;SDS011;29895;48.804;9.386;2024-02-21T07:50:38;21.77;;;5.55;;
44222;SDS011;29895;48.804;9.386;2024-02-21T07:53:04;16.73;;;5.05;;
44222;SDS011;29895;48.804;9.386;2024-02-21T07:55:29;14.45;;;5.07;;
44222;SDS011;29895;48.804;9.386;2024-02-21T07:57:55;14.68;;;5.40;;
44222;SDS011;29895;48.804;9.386;2024-02-21T08:00:21;19.98;;;5.38;;
44222;SDS011;29895;48.804;9.386;2024-02-21T08:02:48;23.70;;;9.48;;
44222;SDS011;29895;48.804;9.386;2024-02-21T08:05:13;25.80;;;8.85;;
44222;SDS011;29895;48.804;9.386;2024-02-21T08:07:39;25.50;;;8.32;;
44222;SDS011;29895;48.804;9.386;2024-02-21T08:10:05;24.27;;;7.55;;
44222;SDS011;29895;48.804;9.386;2024-02-21T08:12:34;16.55;;;6.07;;
44222;SDS011;29895;48.804;9.386;2024-02-21T08:15:00;17.88;;;5.32;;
44222;SDS011;29895;48.804;9.386;2024-02-21T08:17:26;18.20;;;5.15;;
44222;SDS011;29895;48.804;9.386;2024-02-21T08:19:51;18.52;;;4.45;;
44222;SDS011;29895;48.804;9.386;2024-02-21T08:22:17;13.48;;;4.30;;
44222;SDS011;29895;48.804;9.386;2024-02-21T08:24:43;11.15;;;3.97;;
44222;SDS011;29895;48.804;9.386;2024-02-21T08:27:08;16.92;;;4.40;;
44222;SDS011;29895;48.804;9.386;2024-02-21T08:29:34;13.05;;;4.45;;
44222;SDS011;29895;48.804;9.386;2024-02-21T08:32:00;15.32;;;4.25;;
44222;SDS011;29895;48.804;9.386;2024-02-21T08:34:25;9.02;;;3.78;;
44222;SDS011;29895;48.804;9.386;2024-02-21T08:36:51;13.55;;;3.95;;
44222;SDS011;29895;48.804;9.386;2024-02-21T08:39:16;16.10;;;3.70;;
44222;SDS011;29895;48.804;9.386;2024-02-21T08:41:42;13.75;;;3.45;;
44222;SDS011;29895;48.804;9.386;2024-02-21T08:44:08;11.45;;;2.88;;
44222;SDS011;29895;48.804;9.386;2024-02-21T08:46:33;12.68;;;3.63;;
44222;SDS011;29895;48.804;9.386;2024-02-21T08:48:59;13.57;;;3.22;;
44222;SDS011;29895;48.804;9.386;2024-02-21T08:51:25;11.95;;;3.25;;
44222;SDS011;29895;48.804;9.386;2024-02-21T08:53:51;11.18;;;2.90;;
44222;SDS011;29895;48.804;9.386;2024-02-21T08:56:18;13.05;;;2.55;;
44222;SDS011;29895;48.804;9.386;2024-02-21T08:58:44;6.63;;;2.63;;
44222;SDS011;29895;48.804;9.386;2024-02-21T09:01:10;11.32;;;3.40;;
44222;SDS011;29895;48.804;9.386;2024-02-21T09:03:39;11.27;;;4.65;;
44222;SDS011;29895;48.804;9.386;2024-02-21T09:06:07;13.00;;;3.90;;
44222;SDS011;29895;48.804;9.386;2024-02-21T09:08:35;10.23;;;3.10;;
44222;SDS011;29895;48.804;9.386;2024-02-21T09:11:00;9.35;;;3.40;;
44222;SDS011;29895;48.804;9.386;2024-02-21T09:13:26;11.85;;;2.30;;
44222;SDS011;29895;48.804;9.386;2024-02-21T09:15:52;10.43;;;2.38;;
44222;SDS011;29895;48.804;9.386;2024-02-21T09:18:18;10.30;;;2.60;;
44222;SDS011;29895;48.804;9.386;2024-02-21T09:20:44;9.15;;;2.55;;
44222;SDS011;29895;48.804;9.386;2024-02-21T09:23:10;7.72;;;2.25;;
44222;SDS011;29895;48.804;9.386;2024-02-21T09:25:36;10.57;;;2.72;;
44222;SDS011;29895;48.804;9.386;2024-02-21T09:28:02;10.48;;;2.10;;
44222;SDS011;29895;48.804;9.386;2024-02-21T09:30:28;14.27;;;2.60;;
44222;SDS011;29895;48.804;9.386;2024-02-21T09:32:53;7.88;;;2.08;;
44222;SDS011;29895;48.804;9.386;2024-02-21T09:35:19;10.50;;;2.53;;
44222;SDS011;29895;48.804;9.386;2024-02-21T09:37:48;6.10;;;2.22;;
44222;SDS011;29895;48.804;9.386;2024-02-21T09:40:15;8.75;;;2.75;;
44222;SDS011;29895;48.804;9.386;2024-02-21T09:42:43;9.02;;;2.58;;
44222;SDS011;29895;48.804;9.386;2024-02-21T09:47:44;11.80;;;2.45;;
44222;SDS011;29895;48.804;9.386;2024-02-21T09:50:26;11.35;;;2.53;;
44222;SDS011;29895;48.804;9.386;2024-02-21T09:52:54;12.77;;;2.67;;
44222;SDS011;29895;48.804;9.386;2024-02-21T09:55:21;7.25;;;2.70;;
44222;SDS011;29895;48.804;9.386;2024-02-21T09:57:47;7.72;;;2.63;;
44222;SDS011;29895;48.804;9.386;2024-02-21T10:00:15;11.68;;;2.75;;
44222;SDS011;29895;48.804;9.386;2024-02-21T10:02:46;8.25;;;2.70;;
44222;SDS011;29895;48.804;9.386;2024-02-21T10:05:15;8.38;;;2.92;;
44222;SDS011;29895;48.804;9.386;2024-02-21T10:07:42;8.93;;;2.70;;
44222;SDS011;29895;48.804;9.386;2024-02-21T10:10:08;10.43;;;2.78;;
44222;SDS011;29895;48.804;9.386;2024-02-21T10:12:34;11.25;;;2.88;;
44222;SDS011;29895;48.804;9.386;2024-02-21T10:15:03;10.32;;;3.20;;
44222;SDS011;29895;48.804;9.386;2024-02-21T10:17:31;9.73;;;2.80;;
44222;SDS011;29895;48.804;9.386;2024-02-21T10:20:09;10.60;;;2.67;;
44222;SDS011;29895;48.804;9.386;2024-02-21T10:22:37;7.10;;;2.47;;
44222;SDS011;29895;48.804;9.386;2024-02-21T10:25:08;10.43;;;3.05;;
44222;SDS011;29895;48.804;9.386;2024-02-21T10:27:34;12.77;;;2.97;;
44222;SDS011;29895;48.804;9.386;2024-02-21T10:30:00;8.70;;;2.67;;
44222;SDS011;29895;48.804;9.386;2024-02-21T10:32:26;11.23;;;2.40;;
44222;SDS011;29895;48.804;9.386;2024-02-21T10:35:00;10.68;;;3.10;;
44222;SDS011;29895;48.804;9.386;2024-02-21T10:37:30;13.85;;;3.67;;
44222;SDS011;29895;48.804;9.386;2024-02-21T10:39:56;8.27;;;2.42;;
44222;SDS011;29895;48.804;9.386;2024-02-21T10:42:22;9.95;;;2.90;;
44222;SDS011;29895;48.804;9.386;2024-02-21T10:44:52;7.18;;;2.67;;
44222;SDS011;29895;48.804;9.386;2024-02-21T10:47:19;11.38;;;2.92;;
44222;SDS011;29895;48.804;9.386;2024-02-21T10:49:49;8.25;;;2.75;;
44222;SDS011;29895;48.804;9.386;2024-02-21T10:52:31;11.82;;;2.58;;
44222;SDS011;29895;48.804;9.386;2024-02-21T10:55:03;12.65;;;2.95;;
44222;SDS011;29895;48.804;9.386;2024-02-21T10:57:34;8.20;;;3.33;;
44222;SDS011;29895;48.804;9.386;2024-02-21T11:00:03;12.98;;;3.40;;
44222;SDS011;29895;48.804;9.386;2024-02-21T11:02:33;9.32;;;2.30;;
44222;SDS011;29895;48.804;9.386;2024-02-21T11:04:59;10.82;;;2.75;;
44222;SDS011;29895;48.804;9.386;2024-02-21T11:07:28;14.93;;;2.58;;
44222;SDS011;29895;48.804;9.386;2024-02-21T11:09:54;12.98;;;2.42;;
44222;SDS011;29895;48.804;9.386;2024-02-21T11:12:21;7.18;;;2.58;;
44222;SDS011;29895;48.804;9.386;2024-02-21T11:14:48;8.73;;;2.40;;
44222;SDS011;29895;48.804;9.386;2024-02-21T11:17:17;9.43;;;2.00;;
44222;SDS011;29895;48.804;9.386;2024-02-21T11:19:43;10.00;;;2.28;;
44222;SDS011;29895;48.804;9.386;2024-02-21T11:22:16;11.15;;;2.17;;
44222;SDS011;29895;48.804;9.386;2024-02-21T11:24:42;5.90;;;1.77;;
44222;SDS011;29895;48.804;9.386;2024-02-21T11:27:09;9.05;;;2.80;;
44222;SDS011;29895;48.804;9.386;2024-02-21T11:29:45;11.90;;;3.22;;
44222;SDS011;29895;48.804;9.386;2024-02-21T11:32:13;9.70;;;2.33;;
44222;SDS011;29895;48.804;9.386;2024-02-21T11:34:40;6.68;;;2.15;;
44222;SDS011;29895;48.804;9.386;2024-02-21T11:37:15;6.55;;;2.05;;
44222;SDS011;29895;48.804;9.386;2024-02-21T11:39:41;7.15;;;2.35;;
44222;SDS011;29895;48.804;9.386;2024-02-21T11:42:07;15.38;;;5.93;;
44222;SDS011;29895;48.804;9.386;2024-02-21T11:44:36;12.70;;;4.47;;
44222;SDS011;29895;48.804;9.386;2024-02-21T11:47:03;10.70;;;2.63;;
44222;SDS011;29895;48.804;9.386;2024-02-21T11:49:29;7.72;;;2.88;;
44222;SDS011;29895;48.804;9.386;2024-02-21T11:51:59;6.85;;;3.05;;
44222;SDS011;29895;48.804;9.386;2024-02-21T11:54:26;10.85;;;3.25;;
44222;SDS011;29895;48.804;9.386;2024-02-21T11:56:52;7.30;;;3.40;;
44222;SDS011;29895;48.804;9.386;2024-02-21T11:59:18;9.73;;;2.38;;
44222;SDS011;29895;48.804;9.386;2024-02-21T12:01:44;7.60;;;2.67;;
44222;SDS011;29895;48.804;9.386;2024-02-21T12:04:10;10.60;;;3.00;;
44222;SDS011;29895;48.804;9.386;2024-02-21T12:06:35;8.25;;;2.90;;
44222;SDS011;29895;48.804;9.386;2024-02-21T12:09:01;12.77;;;4.05;;
44222;SDS011;29895;48.804;9.386;2024-02-21T12:11:27;13.90;;;4.30;;
44222;SDS011;29895;48.804;9.386;2024-02-21T12:14:02;11.20;;;3.30;;
44222;SDS011;29895;48.804;9.386;2024-02-21T12:16:30;7.80;;;2.60;;
44222;SDS011;29895;48.804;9.386;2024-02-21T12:18:57;15.77;;;4.18;;
44222;SDS011;29895;48.804;9.386;2024-02-21T12:21:26;8.05;;;2.20;;
44222;SDS011;29895;48.804;9.386;2024-02-21T12:23:55;10.43;;;3.75;;
44222;SDS011;29895;48.804;9.386;2024-02-21T12:26:21;14.65;;;4.97;;
44222;SDS011;29895;48.804;9.386;2024-02-21T12:28:47;18.80;;;5.72;;
44222;SDS011;29895;48.804;9.386;2024-02-21T12:31:13;22.23;;;6.90;;
44222;SDS011;29895;48.804;9.386;2024-02-21T12:33:39;14.00;;;4.75;;
44222;SDS011;29895;48.804;9.386;2024-02-21T12:36:05;7.95;;;2.58;;
44222;SDS011;29895;48.804;9.386;2024-02-21T12:38:31;9.65;;;2.60;;
44222;SDS011;29895;48.804;9.386;2024-02-21T12:40:56;7.82;;;1.90;;
44222;SDS011;29895;48.804;9.386;2024-02-21T12:43:22;6.78;;;2.33;;
44222;SDS011;29895;48.804;9.386;2024-02-21T12:45:48;7.82;;;1.65;;
44222;SDS011;29895;48.804;9.386;2024-02-21T12:48:14;5.78;;;1.92;;
44222;SDS011;29895;48.804;9.386;2024-02-21T12:50:42;5.32;;;1.75;;
44222;SDS011;29895;48.804;9.386;2024-02-21T12:53:14;18.13;;;6.05;;
44222;SDS011;29895;48.804;9.386;2024-02-21T12:55:40;5.88;;;1.95;;
44222;SDS011;29895;48.804;9.386;2024-02-21T12:58:06;6.88;;;1.98;;
44222;SDS011;29895;48.804;9.386;2024-02-21T13:00:32;8.10;;;2.28;;
44222;SDS011;29895;48.804;9.386;2024-02-21T13:02:58;6.13;;;1.70;;
44222;SDS011;29895;48.804;9.386;2024-02-21T13:05:24;7.13;;;2.13;;
44222;SDS011;29895;48.804;9.386;2024-02-21T13:07:49;8.80;;;2.22;;
44222;SDS011;29895;48.804;9.386;2024-02-21T13:10:15;6.88;;;1.83;;
44222;SDS011;29895;48.804;9.386;2024-02-21T13:12:41;10.05;;;3.47;;
44222;SDS011;29895;48.804;9.386;2024-02-21T13:15:07;15.18;;;5.18;;
44222;SDS011;29895;48.804;9.386;2024-02-21T13:17:35;12.50;;;4.50;;
44222;SDS011;29895;48.804;9.386;2024-02-21T13:20:00;8.30;;;3.28;;
44222;SDS011;29895;48.804;9.386;2024-02-21T13:22:26;5.68;;;2.33;;
44222;SDS011;29895;48.804;9.386;2024-02-21T13:24:52;12.10;;;2.67;;
44222;SDS011;29895;48.804;9.386;2024-02-21T13:27:17;9.77;;;4.00;;
44222;SDS011;29895;48.804;9.386;2024-02-21T13:29:43;6.43;;;3.15;;
44222;SDS011;29895;48.804;9.386;2024-02-21T13:32:10;8.40;;;3.35;;
44222;SDS011;29895;48.804;9.386;2024-02-21T13:34:35;13.43;;;4.05;;
44222;SDS011;29895;48.804;9.386;2024-02-21T13:37:01;10.57;;;3.00;;
44222;SDS011;29895;48.804;9.386;2024-02-21T13:39:27;9.18;;;2.50;;
44222;SDS011;29895;48.804;9.386;2024-02-21T13:41:52;5.88;;;1.48;;
44222;SDS011;29895;48.804;9.386;2024-02-21T13:44:18;11.07;;;2.83;;
44222;SDS011;29895;48.804;9.386;2024-02-21T13:46:44;11.20;;;3.63;;
44222;SDS011;29895;48.804;9.386;2024-02-21T13:49:09;8.30;;;3.67;;
44222;SDS011;29895;48.804;9.386;2024-02-21T13:51:35;5.88;;;2.30;;
44222;SDS011;29895;48.804;9.386;2024-02-21T13:54:01;5.82;;;1.77;;
44222;SDS011;29895;48.804;9.386;2024-02-21T13:56:28;7.47;;;2.55;;
44222;SDS011;29895;48.804;9.386;2024-02-21T13:58:54;5.18;;;2.30;;
44222;SDS011;29895;48.804;9.386;2024-02-21T14:01:20;5.38;;;2.30;;
44222;SDS011;29895;48.804;9.386;2024-02-21T14:03:46;6.22;;;3.15;;
44222;SDS011;29895;48.804;9.386;2024-02-21T14:06:11;9.02;;;4.90;;
44222;SDS011;29895;48.804;9.386;2024-02-21T14:08:37;21.45;;;9.13;;
44222;SDS011;29895;48.804;9.386;2024-02-21T14:11:04;19.45;;;8.43;;
44222;SDS011;29895;48.804;9.386;2024-02-21T14:13:31;11.27;;;5.78;;
44222;SDS011;29895;48.804;9.386;2024-02-21T14:15:57;8.30;;;2.88;;
44222;SDS011;29895;48.804;9.386;2024-02-21T14:18:22;7.68;;;3.20;;
44222;SDS011;29895;48.804;9.386;2024-02-21T14:20:48;3.03;;;1.20;;
44222;SDS011;29895;48.804;9.386;2024-02-21T14:23:13;4.32;;;1.10;;
44222;SDS011;29895;48.804;9.386;2024-02-21T14:25:39;2.55;;;0.95;;
44222;SDS011;29895;48.804;9.386;2024-02-21T14:28:07;4.60;;;1.30;;
44222;SDS011;29895;48.804;9.386;2024-02-21T14:30:34;5.85;;;1.73;;
44222;SDS011;29895;48.804;9.386;2024-02-21T14:33:00;6.07;;;2.10;;
44222;SDS011;29895;48.804;9.386;2024-02-21T14:35:26;6.78;;;1.52;;
44222;SDS011;29895;48.804;9.386;2024-02-21T14:37:51;4.95;;;1.40;;